Time;durP1;ratioP1;P1;durP2;ratioP2;P2;SDS_P1;SDS_P2;PMS_P1;PMS_P2;Temp;Humidity;BMP_temperature;BMP_pressure;BME280_temperature;BME280_humidity;BME280_pressure;Samples;Min_cycle;Max_cycle;Signal;HPM_P1;HPM_P2
2023/07/14 00:01:43;;;;;;;15.93;8.10;;;14.80;99.90;;;;;;4990898;28;20195;-58
2023/07/14 00:04:12;;;;;;;14.90;8.30;;;14.80;99.90;;;;;;4991006;28;20636;-59
2023/07/14 00:06:38;;;;;;;9.20;8.17;;;14.80;99.90;;;;;;4989787;28;20220;-60
2023/07/14 00:09:14;;;;;;;10.53;8.77;;;14.80;99.90;;;;;;4991117;28;20427;-60
2023/07/14 00:11:39;;;;;;;14.37;9.10;;;14.80;99.90;;;;;;4990343;28;20413;-60
2023/07/14 00:14:05;;;;;;;12.23;8.70;;;14.80;99.90;;;;;;4990897;28;20422;-56
2023/07/14 00:16:31;;;;;;;12.00;9.10;;;14.70;99.90;;;;;;4990171;28;20191;-59
2023/07/14 00:18:56;;;;;;;9.10;8.10;;;14.70;99.90;;;;;;4989364;28;20178;-59
2023/07/14 00:21:24;;;;;;;13.63;7.97;;;14.70;99.90;;;;;;4990134;28;20188;-60
2023/07/14 00:23:57;;;;;;;13.97;9.27;;;14.70;99.90;;;;;;4989111;28;20191;-58
2023/07/14 00:26:22;;;;;;;12.40;8.47;;;14.70;99.90;;;;;;4990225;28;20464;-58
2023/07/14 00:28:49;;;;;;;10.43;6.90;;;14.70;99.90;;;;;;4989581;28;20430;-56
2023/07/14 00:31:17;;;;;;;10.03;7.63;;;14.70;99.90;;;;;;4989881;28;20179;-59
2023/07/14 00:33:44;;;;;;;10.07;7.77;;;14.70;99.90;;;;;;4989714;28;20434;-57
2023/07/14 00:36:11;;;;;;;17.37;8.10;;;14.60;99.90;;;;;;4989488;28;20439;-60
2023/07/14 00:38:37;;;;;;;11.50;7.90;;;14.70;99.90;;;;;;4989728;28;20870;-58
2023/07/14 00:41:07;;;;;;;12.50;7.10;;;14.60;99.90;;;;;;4990177;28;20504;-58
2023/07/14 00:43:34;;;;;;;8.37;6.90;;;14.60;99.90;;;;;;4989500;28;20413;-60
2023/07/14 00:46:00;;;;;;;9.53;7.13;;;14.60;99.90;;;;;;4989974;28;20482;-61
2023/07/14 00:48:29;;;;;;;9.33;8.00;;;14.60;99.90;;;;;;4989794;28;20423;-60
2023/07/14 00:51:05;;;;;;;11.20;7.93;;;14.60;99.90;;;;;;4989406;28;20475;-59
2023/07/14 00:53:39;;;;;;;9.00;7.27;;;14.70;99.90;;;;;;4989926;28;20414;-59
2023/07/14 00:56:12;;;;;;;9.50;6.90;;;14.70;99.90;;;;;;4990554;28;20410;-60
2023/07/14 00:58:39;;;;;;;8.87;7.63;;;14.70;99.90;;;;;;4989158;28;20484;-60
2023/07/14 01:01:10;;;;;;;7.90;6.60;;;14.80;99.90;;;;;;4989593;28;20529;-59
2023/07/14 01:03:41;;;;;;;8.00;7.00;;;14.80;99.90;;;;;;4989658;28;20426;-58
2023/07/14 01:06:10;;;;;;;8.33;6.47;;;14.80;99.90;;;;;;4989253;28;20477;-60
2023/07/14 01:08:40;;;;;;;10.07;7.20;;;14.70;99.90;;;;;;4989397;28;20430;-55
2023/07/14 01:11:06;;;;;;;7.70;6.73;;;14.70;99.90;;;;;;4989553;28;20404;-55
2023/07/14 01:13:31;;;;;;;8.90;6.33;;;14.60;99.90;;;;;;4989486;28;20425;-59
2023/07/14 01:15:57;;;;;;;9.00;6.50;;;14.60;99.90;;;;;;4989993;28;20265;-60
2023/07/14 01:18:23;;;;;;;8.80;7.00;;;14.50;99.90;;;;;;4989118;28;20184;-60
2023/07/14 01:20:48;;;;;;;8.77;6.40;;;14.50;99.90;;;;;;4989132;28;20187;-61
2023/07/14 01:23:42;;;;;;;10.90;7.27;;;14.50;99.90;;;;;;4989688;28;20190;-58
2023/07/14 01:26:37;;;;;;;11.50;6.93;;;14.50;99.90;;;;;;4989165;28;20574;-61
2023/07/14 01:29:03;;;;;;;9.70;7.50;;;14.40;99.90;;;;;;5016208;28;20473;-61
2023/07/14 01:31:29;;;;;;;9.63;6.53;;;14.50;99.90;;;;;;4989260;28;20414;-56
2023/07/14 01:33:56;;;;;;;9.40;6.80;;;14.40;99.90;;;;;;4989537;28;20872;-60
2023/07/14 01:36:23;;;;;;;7.67;6.70;;;14.40;99.90;;;;;;4992945;28;20436;-59
2023/07/14 01:38:51;;;;;;;9.93;6.40;;;14.40;99.90;;;;;;4991786;28;20434;-59
2023/07/14 01:41:17;;;;;;;9.27;6.73;;;14.40;99.90;;;;;;4992286;28;20454;-59
2023/07/14 01:43:43;;;;;;;10.03;6.73;;;14.30;99.90;;;;;;4992620;28;20431;-60
2023/07/14 01:46:14;;;;;;;10.23;7.60;;;14.30;99.90;;;;;;4992459;28;20466;-61
2023/07/14 01:49:23;;;;;;;8.73;6.60;;;14.20;99.90;;;;;;4992359;28;20421;-58
2023/07/14 01:51:51;;;;;;;8.57;7.10;;;14.20;99.90;;;;;;5003536;28;20584;-60
2023/07/14 01:54:36;;;;;;;15.03;7.07;;;14.20;99.90;;;;;;4992443;28;20500;-58
2023/07/14 01:57:06;;;;;;;9.00;6.90;;;14.20;99.90;;;;;;4992574;28;20414;-62
2023/07/14 01:59:39;;;;;;;7.77;7.00;;;14.20;99.90;;;;;;4992326;28;20405;-60
2023/07/14 02:02:11;;;;;;;8.90;7.10;;;14.10;99.90;;;;;;4992342;28;20427;-61
2023/07/14 02:04:38;;;;;;;8.33;7.30;;;14.20;99.90;;;;;;4992180;28;20768;-59
2023/07/14 02:07:04;;;;;;;11.40;7.10;;;14.20;99.90;;;;;;4992258;28;20466;-59
2023/07/14 02:09:31;;;;;;;15.13;7.47;;;14.10;99.90;;;;;;4992240;28;20762;-57
2023/07/14 02:12:04;;;;;;;10.60;8.10;;;14.10;99.90;;;;;;4992576;28;20182;-60
2023/07/14 02:14:39;;;;;;;9.37;6.50;;;14.10;99.90;;;;;;4992214;28;20438;-60
2023/07/14 02:17:12;;;;;;;10.23;7.87;;;14.10;99.90;;;;;;4991910;28;20872;-56
2023/07/14 02:19:38;;;;;;;10.30;7.10;;;14.00;99.90;;;;;;4991513;28;20465;-60
2023/07/14 02:22:05;;;;;;;11.40;7.03;;;14.00;99.90;;;;;;4992349;28;20418;-59
2023/07/14 02:24:31;;;;;;;8.27;7.30;;;14.00;99.90;;;;;;4992245;28;20272;-60
2023/07/14 02:27:00;;;;;;;9.10;8.07;;;13.90;99.90;;;;;;4991900;28;21043;-59
2023/07/14 02:29:27;;;;;;;12.97;8.00;;;13.90;99.90;;;;;;4991605;28;20219;-59
2023/07/14 02:32:12;;;;;;;18.30;8.47;;;13.90;99.90;;;;;;4991923;28;20419;-60
2023/07/14 02:34:45;;;;;;;11.30;8.40;;;13.90;99.90;;;;;;4992080;28;20421;-61
2023/07/14 02:37:53;;;;;;;10.77;8.00;;;13.90;99.90;;;;;;4991956;28;20499;-60
2023/07/14 02:40:19;;;;;;;11.43;8.10;;;13.90;99.90;;;;;;4991226;28;20423;-59
2023/07/14 02:42:44;;;;;;;9.30;8.37;;;13.90;99.90;;;;;;4991280;28;20421;-58
2023/07/14 02:45:13;;;;;;;9.13;7.57;;;13.90;99.90;;;;;;4991703;28;20423;-59
2023/07/14 02:47:41;;;;;;;12.27;8.70;;;13.90;99.90;;;;;;4990904;28;20187;-59
2023/07/14 02:50:07;;;;;;;10.93;8.40;;;13.90;99.90;;;;;;4991527;28;20414;-59
2023/07/14 02:52:32;;;;;;;8.90;8.00;;;13.90;99.90;;;;;;4991467;28;20428;-58
2023/07/14 02:54:58;;;;;;;15.03;9.23;;;13.80;99.90;;;;;;4991398;28;20480;-59
2023/07/14 02:57:23;;;;;;;12.53;8.40;;;13.80;99.90;;;;;;4991654;28;20672;-59
2023/07/14 02:59:49;;;;;;;10.83;8.57;;;13.80;99.90;;;;;;4991543;28;20247;-58
2023/07/14 03:02:15;;;;;;;10.83;9.20;;;13.70;99.90;;;;;;4991506;28;20182;-59
2023/07/14 03:04:40;;;;;;;10.97;9.20;;;13.70;99.90;;;;;;4990948;28;20180;-58
2023/07/14 03:07:06;;;;;;;9.80;8.53;;;13.80;99.90;;;;;;4991512;28;20224;-58
2023/07/14 03:09:31;;;;;;;12.33;9.23;;;13.70;99.90;;;;;;4991090;28;20264;-58
2023/07/14 03:11:57;;;;;;;13.60;10.60;;;13.70;99.90;;;;;;4991394;28;20187;-57
2023/07/14 03:14:23;;;;;;;13.30;9.80;;;13.60;99.90;;;;;;4991982;28;20253;-59
2023/07/14 03:16:49;;;;;;;12.00;9.23;;;13.60;99.90;;;;;;4990582;28;20431;-59
2023/07/14 03:19:14;;;;;;;14.57;10.53;;;13.60;99.90;;;;;;4990938;28;20422;-57
2023/07/14 03:21:40;;;;;;;14.20;10.03;;;13.60;99.90;;;;;;4991051;28;20695;-58
2023/07/14 03:24:06;;;;;;;14.63;10.93;;;13.60;99.90;;;;;;4990646;28;20490;-57
2023/07/14 03:26:31;;;;;;;14.60;10.40;;;13.60;99.90;;;;;;4991072;28;20327;-59
2023/07/14 03:28:57;;;;;;;15.53;9.83;;;13.60;99.90;;;;;;4990421;28;20190;-58
2023/07/14 03:31:23;;;;;;;16.27;9.60;;;13.60;99.90;;;;;;4991102;28;20273;-58
2023/07/14 03:33:49;;;;;;;17.73;10.50;;;13.60;99.90;;;;;;4990876;28;20212;-58
2023/07/14 03:36:15;;;;;;;16.63;10.60;;;13.60;99.90;;;;;;4990628;28;20826;-57
2023/07/14 03:38:43;;;;;;;12.00;9.97;;;13.70;99.90;;;;;;4990388;28;20190;-57
2023/07/14 03:41:10;;;;;;;17.17;10.43;;;13.70;99.90;;;;;;4991083;28;20415;-57
2023/07/14 03:43:36;;;;;;;14.47;9.87;;;13.70;99.90;;;;;;4990605;28;20425;-55
2023/07/14 03:46:01;;;;;;;16.57;11.53;;;13.70;99.90;;;;;;4990159;28;20470;-58
2023/07/14 03:48:27;;;;;;;11.23;9.73;;;13.70;99.90;;;;;;4990514;28;20185;-56
2023/07/14 03:50:52;;;;;;;20.40;12.03;;;13.70;99.90;;;;;;4990250;28;20203;-58
2023/07/14 03:53:18;;;;;;;15.27;11.50;;;13.80;99.90;;;;;;4990529;28;20223;-58
2023/07/14 03:55:47;;;;;;;21.33;11.60;;;13.80;99.90;;;;;;4990169;28;20261;-57
2023/07/14 03:58:12;;;;;;;21.93;12.27;;;13.80;99.90;;;;;;4989159;28;20232;-58
2023/07/14 04:00:38;;;;;;;19.83;12.40;;;13.90;99.90;;;;;;4990254;28;20799;-57
2023/07/14 04:03:04;;;;;;;20.57;12.13;;;14.00;99.90;;;;;;4991267;28;20222;-60
2023/07/14 04:05:30;;;;;;;17.67;11.77;;;14.00;99.90;;;;;;4989741;28;20702;-58
2023/07/14 04:07:56;;;;;;;20.40;11.80;;;14.10;99.90;;;;;;4989796;28;20914;-58
2023/07/14 04:10:22;;;;;;;20.67;11.73;;;14.20;99.90;;;;;;4990400;28;20413;-58
2023/07/14 04:12:48;;;;;;;17.70;12.03;;;14.20;99.90;;;;;;4990687;28;20837;-58
2023/07/14 04:15:14;;;;;;;12.97;11.30;;;14.30;99.90;;;;;;4990083;28;20210;-59
2023/07/14 04:17:40;;;;;;;14.00;11.70;;;14.30;99.90;;;;;;4989698;28;20923;-58
2023/07/14 04:20:07;;;;;;;15.27;12.17;;;14.30;99.90;;;;;;4989850;28;20652;-57
2023/07/14 04:22:33;;;;;;;15.77;12.13;;;14.40;99.90;;;;;;4990417;28;20414;-57
2023/07/14 04:24:58;;;;;;;14.27;11.70;;;14.50;99.90;;;;;;4990570;28;20456;-58
2023/07/14 04:27:25;;;;;;;17.50;12.80;;;14.50;99.90;;;;;;4989891;28;20429;-57
2023/07/14 04:29:51;;;;;;;19.43;13.53;;;14.50;99.90;;;;;;4989775;28;20634;-58
2023/07/14 04:32:16;;;;;;;13.90;11.30;;;14.60;99.90;;;;;;4990369;28;20439;-59
2023/07/14 04:34:42;;;;;;;17.07;11.43;;;14.60;99.90;;;;;;4990241;28;20624;-59
2023/07/14 04:37:09;;;;;;;15.77;11.97;;;14.70;99.90;;;;;;4990292;28;20210;-58
2023/07/14 04:39:35;;;;;;;17.07;12.93;;;14.80;99.90;;;;;;4990041;28;20190;-58
2023/07/14 04:42:01;;;;;;;16.43;11.33;;;14.80;99.90;;;;;;4990102;28;20419;-59
2023/07/14 04:44:26;;;;;;;16.23;13.03;;;14.90;99.90;;;;;;4989421;28;20432;-59
2023/07/14 04:46:52;;;;;;;16.60;12.80;;;14.90;99.90;;;;;;4989191;28;20268;-58
2023/07/14 04:49:18;;;;;;;16.90;13.57;;;15.10;99.90;;;;;;4989591;28;20184;-59
2023/07/14 04:51:44;;;;;;;18.10;12.20;;;15.20;99.90;;;;;;4990058;28;20191;-59
2023/07/14 04:54:09;;;;;;;17.30;11.83;;;15.30;99.90;;;;;;4989237;28;20628;-60
2023/07/14 04:56:36;;;;;;;15.47;11.67;;;15.40;99.90;;;;;;4989661;28;20186;-56
2023/07/14 04:59:04;;;;;;;13.63;11.00;;;15.50;99.90;;;;;;4990244;28;20520;-60
2023/07/14 05:01:30;;;;;;;17.23;11.97;;;15.60;99.90;;;;;;4990143;28;20419;-60
2023/07/14 05:03:56;;;;;;;15.53;11.30;;;15.60;99.90;;;;;;4989229;28;20445;-60
2023/07/14 05:06:22;;;;;;;18.50;11.60;;;15.70;99.90;;;;;;4989141;28;20496;-60
2023/07/14 05:08:48;;;;;;;16.10;11.23;;;15.80;99.90;;;;;;4989896;28;20513;-58
2023/07/14 05:11:13;;;;;;;17.27;11.03;;;15.90;99.90;;;;;;4995612;28;20231;-60
2023/07/14 05:13:40;;;;;;;15.53;11.33;;;16.00;99.90;;;;;;4996084;28;20270;-60
2023/07/14 05:16:05;;;;;;;14.30;10.90;;;16.10;99.90;;;;;;4995655;28;20200;-55
2023/07/14 05:18:31;;;;;;;17.03;10.90;;;16.20;99.90;;;;;;4996054;28;20423;-59
2023/07/14 05:21:04;;;;;;;15.73;12.00;;;16.30;99.90;;;;;;4995886;28;20187;-60
2023/07/14 05:23:31;;;;;;;18.50;12.20;;;16.50;74.10;;;;;;4996107;28;20191;-61
2023/07/14 05:25:57;;;;;;;13.57;11.67;;;16.50;32.90;;;;;;4995909;28;20825;-61
2023/07/14 05:28:24;;;;;;;13.10;11.30;;;16.60;1.00;;;;;;4995607;28;20423;-60
2023/07/14 05:30:50;;;;;;;17.27;11.23;;;16.80;1.00;;;;;;4995362;28;20210;-61
2023/07/14 05:33:16;;;;;;;15.63;11.77;;;16.90;1.00;;;;;;4996171;28;20447;-61
2023/07/14 05:35:43;;;;;;;18.83;12.93;;;17.00;1.00;;;;;;4996018;28;20432;-59
2023/07/14 05:38:09;;;;;;;16.97;12.10;;;17.00;1.00;;;;;;4995560;28;20432;-61
2023/07/14 05:40:34;;;;;;;21.03;12.10;;;17.10;1.00;;;;;;4996135;28;20910;-61
2023/07/14 05:43:00;;;;;;;16.03;11.87;;;17.10;1.00;;;;;;4995700;28;20555;-60
2023/07/14 05:45:26;;;;;;;17.97;12.00;;;17.20;1.00;;;;;;4996042;28;20215;-58
2023/07/14 05:47:51;;;;;;;20.03;11.93;;;17.20;1.00;;;;;;4995801;28;20607;-60
2023/07/14 05:50:17;;;;;;;12.90;11.50;;;17.10;1.00;;;;;;4995139;28;20218;-61
2023/07/14 05:52:44;;;;;;;19.30;12.07;;;17.10;1.00;;;;;;4995115;28;20192;-60
2023/07/14 05:55:10;;;;;;;19.53;11.47;;;17.00;1.00;;;;;;4995336;28;20989;-61
2023/07/14 05:57:36;;;;;;;21.13;12.53;;;16.90;1.00;;;;;;4995764;28;20464;-60
2023/07/14 06:00:05;;;;;;;18.67;12.80;;;17.00;1.00;;;;;;4996369;28;20423;-60
2023/07/14 06:02:31;;;;;;;16.60;11.27;;;17.30;1.00;;;;;;4996101;28;20425;-61
2023/07/14 06:05:00;;;;;;;17.60;12.00;;;17.60;1.00;;;;;;4996072;28;20758;-61
2023/07/14 06:07:26;;;;;;;20.47;12.43;;;17.90;99.90;;;;;;4996100;28;20225;-61
2023/07/14 06:09:51;;;;;;;20.17;12.27;;;18.10;1.00;;;;;;4995836;28;20426;-62
2023/07/14 06:12:17;;;;;;;16.10;12.30;;;18.20;1.00;;;;;;4995921;28;20938;-63
2023/07/14 06:14:42;;;;;;;17.03;11.20;;;18.40;1.00;;;;;;4995959;28;20289;-62
2023/07/14 06:17:08;;;;;;;19.03;10.23;;;18.50;99.90;;;;;;4995958;28;20198;-61
2023/07/14 06:19:35;;;;;;;13.27;11.10;;;18.70;99.90;;;;;;4995880;28;20187;-62
2023/07/14 06:22:01;;;;;;;18.10;10.63;;;19.00;1.00;;;;;;4992860;28;20207;-62
2023/07/14 06:24:26;;;;;;;15.73;11.07;;;19.20;1.00;;;;;;4992500;28;20930;-62
2023/07/14 06:26:52;;;;;;;15.40;10.20;;;19.50;99.90;;;;;;4992575;28;20253;-61
2023/07/14 06:29:18;;;;;;;12.00;8.30;;;19.60;72.30;;;;;;4992339;28;20177;-61
2023/07/14 06:31:43;;;;;;;13.80;9.53;;;19.80;40.60;;;;;;4992630;28;20184;-61
2023/07/14 06:34:09;;;;;;;13.33;9.73;;;20.10;22.00;;;;;;4992120;28;20426;-60
2023/07/14 06:36:35;;;;;;;13.50;10.57;;;20.20;1.00;;;;;;4992621;28;20190;-62
2023/07/14 06:39:03;;;;;;;13.30;10.27;;;20.00;1.00;;;;;;4991868;28;20223;-61
2023/07/14 06:41:29;;;;;;;11.53;10.33;;;20.00;1.00;;;;;;4992165;28;20594;-60
2023/07/14 06:43:55;;;;;;;11.53;9.73;;;19.90;1.00;;;;;;4992376;28;20424;-62
2023/07/14 06:46:20;;;;;;;13.73;10.23;;;20.00;1.00;;;;;;4992349;28;20212;-62
2023/07/14 06:48:46;;;;;;;14.23;10.07;;;20.10;1.00;;;;;;4991712;28;20665;-62
2023/07/14 06:51:16;;;;;;;14.03;9.37;;;20.20;1.00;;;;;;4991999;28;20180;-62
2023/07/14 06:53:41;;;;;;;11.77;9.80;;;20.40;1.00;;;;;;4991705;28;20753;-62
2023/07/14 06:56:07;;;;;;;10.10;8.73;;;20.60;1.00;;;;;;4992052;28;20418;-57
2023/07/14 06:58:34;;;;;;;10.23;8.83;;;20.90;1.00;;;;;;4992181;28;20190;-62
2023/07/14 07:01:00;;;;;;;10.77;9.07;;;21.10;1.00;;;;;;4991570;28;20184;-62
2023/07/14 07:03:25;;;;;;;13.20;8.73;;;21.10;1.00;;;;;;4991756;28;20508;-62
2023/07/14 07:05:51;;;;;;;15.00;8.43;;;21.00;1.00;;;;;;4991680;28;20868;-62
2023/07/14 07:08:17;;;;;;;12.37;7.80;;;21.10;1.00;;;;;;4991908;28;20249;-62
2023/07/14 07:10:43;;;;;;;14.93;8.07;;;21.30;1.00;;;;;;4991751;28;20768;-62
2023/07/14 07:13:11;;;;;;;15.17;8.70;;;21.50;1.00;;;;;;4991670;28;20420;-61
2023/07/14 07:15:37;;;;;;;11.50;7.70;;;21.50;1.00;;;;;;4991905;28;20453;-62
2023/07/14 07:18:03;;;;;;;11.53;7.83;;;21.60;1.00;;;;;;4991669;28;20446;-59
2023/07/14 07:20:29;;;;;;;11.60;7.50;;;21.80;1.00;;;;;;4991288;28;20673;-62
2023/07/14 07:22:54;;;;;;;8.70;7.77;;;21.90;1.00;;;;;;4991563;28;20449;-62
2023/07/14 07:25:20;;;;;;;11.53;7.80;;;22.00;1.00;;;;;;4991138;28;20910;-62
2023/07/14 07:27:46;;;;;;;8.40;6.17;;;22.20;1.00;;;;;;4991472;28;20182;-61
2023/07/14 07:30:11;;;;;;;11.30;6.70;;;22.40;1.00;;;;;;4991290;28;20186;-60
2023/07/14 07:32:40;;;;;;;9.93;6.10;;;22.60;1.00;;;;;;4991498;28;20192;-62
2023/07/14 07:35:05;;;;;;;9.40;6.20;;;22.60;1.00;;;;;;4991757;28;20248;-60
2023/07/14 07:37:32;;;;;;;7.80;6.03;;;22.50;1.00;;;;;;4991364;28;20934;-63
2023/07/14 07:39:58;;;;;;;11.40;5.30;;;22.60;1.00;;;;;;4991281;28;20439;-62
2023/07/14 07:42:25;;;;;;;8.13;5.30;;;22.70;1.00;;;;;;4991230;28;20431;-62
2023/07/14 07:44:50;;;;;;;6.83;5.13;;;22.80;1.00;;;;;;4991197;28;20431;-62
2023/07/14 07:47:16;;;;;;;8.63;4.70;;;22.70;1.00;;;;;;4990918;28;20809;-62
2023/07/14 07:49:42;;;;;;;6.40;4.40;;;22.70;1.00;;;;;;4990874;28;20190;-61
2023/07/14 07:52:11;;;;;;;7.83;4.10;;;22.70;1.00;;;;;;4991092;28;20424;-60
2023/07/14 07:54:38;;;;;;;6.13;4.23;;;23.00;1.00;;;;;;4990921;28;20240;-60
2023/07/14 07:57:06;;;;;;;9.73;4.83;;;23.30;1.00;;;;;;4991255;28;20432;-60
2023/07/14 07:59:32;;;;;;;8.50;5.00;;;23.50;1.00;;;;;;4990943;28;20424;-59
2023/07/14 08:01:58;;;;;;;6.77;4.60;;;23.30;1.00;;;;;;4990682;28;20606;-59
2023/07/14 08:04:23;;;;;;;7.30;4.80;;;23.20;1.00;;;;;;4990649;28;20907;-60
2023/07/14 08:06:49;;;;;;;8.30;5.90;;;23.30;1.00;;;;;;4990823;28;20216;-59
2023/07/14 08:09:15;;;;;;;8.77;6.13;;;23.50;1.00;;;;;;4990826;28;20578;-59
2023/07/14 08:11:41;;;;;;;10.90;6.53;;;23.30;1.00;;;;;;4990974;28;20183;-59
2023/07/14 08:14:16;;;;;;;6.80;5.23;;;23.20;1.00;;;;;;4990746;28;20242;-59
2023/07/14 08:16:41;;;;;;;9.43;5.10;;;23.30;1.00;;;;;;4990776;28;20178;-59
2023/07/14 08:19:07;;;;;;;10.70;5.50;;;23.70;1.00;;;;;;4990962;28;20886;-59
2023/07/14 08:21:35;;;;;;;7.63;5.00;;;24.20;1.00;;;;;;4990673;28;20678;-59
2023/07/14 08:24:01;;;;;;;10.20;5.17;;;24.20;1.00;;;;;;4990398;28;20575;-59
2023/07/14 08:26:27;;;;;;;6.80;4.23;;;24.30;1.00;;;;;;4990520;28;20579;-58
2023/07/14 08:28:53;;;;;;;6.27;4.50;;;24.20;1.00;;;;;;4990555;28;20192;-59
2023/07/14 08:31:19;;;;;;;7.03;4.43;;;24.30;1.00;;;;;;4990628;28;20204;-59
2023/07/14 08:33:45;;;;;;;6.83;4.10;;;24.60;1.00;;;;;;4990629;28;20264;-59
2023/07/14 08:36:12;;;;;;;8.60;4.60;;;25.00;1.00;;;;;;4990452;28;20199;-58
2023/07/14 08:38:39;;;;;;;4.40;3.93;;;25.30;1.00;;;;;;4990340;28;20548;-60
2023/07/14 08:41:27;;;;;;;7.00;4.43;;;25.50;1.00;;;;;;4990627;28;20840;-59
2023/07/14 08:44:17;;;;;;;6.40;3.50;;;25.60;1.00;;;;;;4989751;28;20847;-60
2023/07/14 08:46:57;;;;;;;5.27;3.60;;;25.90;1.00;;;;;;4990168;28;20490;-59
2023/07/14 08:49:41;;;;;;;4.53;3.50;;;26.10;1.00;;;;;;4990443;28;20414;-59
2023/07/14 08:52:17;;;;;;;5.57;3.87;;;26.10;1.00;;;;;;4990291;28;20411;-59
2023/07/14 08:54:47;;;;;;;6.70;4.00;;;25.90;1.00;;;;;;4989982;28;20550;-59
2023/07/14 08:57:19;;;;;;;11.93;4.07;;;25.80;1.00;;;;;;4990185;28;20457;-59
2023/07/14 08:59:46;;;;;;;5.33;3.33;;;25.70;1.00;;;;;;4989787;28;20436;-58
2023/07/14 09:02:23;;;;;;;5.83;3.00;;;25.70;1.00;;;;;;4989814;28;20900;-59
2023/07/14 09:04:58;;;;;;;3.63;3.17;;;25.80;1.00;;;;;;4989860;28;20404;-60
2023/07/14 09:07:24;;;;;;;5.70;3.10;;;25.90;1.00;;;;;;4989664;28;20869;-59
2023/07/14 09:09:50;;;;;;;6.70;3.33;;;26.20;1.00;;;;;;4989967;28;20484;-59
2023/07/14 09:12:40;;;;;;;5.30;2.60;;;26.10;1.00;;;;;;4989922;28;20498;-60
2023/07/14 09:15:16;;;;;;;4.60;2.67;;;26.30;1.00;;;;;;4990472;28;20185;-59
2023/07/14 09:17:52;;;;;;;5.97;3.03;;;26.90;1.00;;;;;;4989643;28;20768;-59
2023/07/14 09:20:34;;;;;;;7.83;2.77;;;27.40;1.00;;;;;;4989824;28;20396;-59
2023/07/14 09:23:16;;;;;;;3.03;2.10;;;27.80;99.90;;;;;;4989584;28;20412;-58
2023/07/14 09:26:02;;;;;;;2.93;2.70;;;27.20;99.90;;;;;;4989698;28;20460;-58
2023/07/14 09:28:44;;;;;;;9.43;3.07;;;26.90;99.90;;;;;;4989825;28;20827;-58
2023/07/14 09:31:37;;;;;;;9.67;3.57;;;27.10;99.90;;;;;;4989807;28;20405;-58
2023/07/14 09:34:12;;;;;;;5.27;2.63;;;26.60;99.90;;;;;;4989725;28;20401;-58
2023/07/14 09:36:39;;;;;;;4.37;2.80;;;25.60;99.90;;;;;;4990018;28;20438;-58
2023/07/14 09:39:10;;;;;;;9.93;3.30;;;25.30;99.90;;;;;;4989472;28;20421;-58
2023/07/14 09:41:35;;;;;;;5.73;2.73;;;25.10;99.90;;;;;;4989796;28;20405;-57
2023/07/14 09:44:01;;;;;;;5.73;3.20;;;24.90;99.90;;;;;;4989236;28;20423;-58
2023/07/14 09:46:46;;;;;;;4.07;2.90;;;24.80;99.90;;;;;;4989487;28;20245;-58
2023/07/14 09:49:38;;;;;;;5.63;2.97;;;25.10;99.90;;;;;;4988563;28;20544;-58
2023/07/14 09:52:12;;;;;;;4.13;2.60;;;25.30;99.90;;;;;;4989470;28;20466;-58
2023/07/14 09:55:01;;;;;;;7.60;2.77;;;25.80;99.90;;;;;;4989358;28;20494;-58
2023/07/14 09:57:29;;;;;;;4.77;3.13;;;26.10;99.90;;;;;;4998532;28;20436;-57
2023/07/14 09:59:58;;;;;;;10.20;3.27;;;25.80;99.90;;;;;;4992478;28;20420;-58
2023/07/14 10:02:34;;;;;;;3.07;2.73;;;25.50;99.90;;;;;;4992721;28;20423;-58
2023/07/14 10:05:30;;;;;;;7.63;2.80;;;25.40;99.90;;;;;;4992620;28;20465;-58
2023/07/14 10:07:56;;;;;;;3.33;3.03;;;26.10;99.90;;;;;;5017057;28;20436;-58
2023/07/14 10:10:26;;;;;;;3.23;2.50;;;26.90;99.90;;;;;;4992523;28;20414;-57
2023/07/14 10:12:52;;;;;;;5.23;3.20;;;27.70;99.90;;;;;;4992552;28;20185;-58
2023/07/14 10:15:34;;;;;;;4.27;2.57;;;28.00;99.90;;;;;;4992615;28;20429;-58
2023/07/14 10:18:13;;;;;;;2.83;2.57;;;28.50;99.90;;;;;;4992482;28;20516;-58
2023/07/14 10:20:39;;;;;;;4.47;2.43;;;28.00;99.90;;;;;;4992790;28;20405;-58
2023/07/14 10:23:15;;;;;;;3.17;2.87;;;26.90;99.90;;;;;;4992604;28;20823;-58
2023/07/14 10:25:49;;;;;;;9.30;3.00;;;26.20;99.90;;;;;;4992542;28;20455;-54
2023/07/14 10:28:24;;;;;;;7.00;3.00;;;25.60;99.90;;;;;;4992400;28;20465;-57
2023/07/14 10:30:57;;;;;;;4.53;2.60;;;25.20;99.90;;;;;;4992521;28;20410;-57
2023/07/14 10:33:29;;;;;;;4.87;2.97;;;25.00;99.90;;;;;;4991999;28;20919;-58
2023/07/14 10:36:07;;;;;;;7.63;3.00;;;25.40;99.90;;;;;;4992294;28;20458;-58
2023/07/14 10:38:41;;;;;;;6.50;3.33;;;26.30;99.90;;;;;;4992233;28;20405;-58
2023/07/14 10:41:10;;;;;;;5.10;3.00;;;26.70;99.90;;;;;;4992466;28;20772;-58
2023/07/14 10:43:51;;;;;;;5.43;2.90;;;26.40;99.90;;;;;;4992130;28;20424;-58
2023/07/14 10:46:37;;;;;;;4.57;3.30;;;25.60;99.90;;;;;;4992040;28;20456;-57
2023/07/14 10:49:24;;;;;;;4.47;3.03;;;24.70;99.90;;;;;;4992136;28;20426;-58
2023/07/14 10:52:03;;;;;;;9.17;3.50;;;24.00;99.90;;;;;;4992065;28;20415;-58
2023/07/14 10:54:57;;;;;;;7.70;2.90;;;23.80;99.90;;;;;;4991658;28;20993;-58
2023/07/14 10:57:33;;;;;;;5.77;3.00;;;23.60;99.90;;;;;;4991664;28;20969;-58
2023/07/14 11:00:25;;;;;;;7.63;3.20;;;24.00;99.90;;;;;;4991872;28;20483;-58
2023/07/14 11:03:26;;;;;;;4.80;3.10;;;25.70;99.90;;;;;;4991869;28;20408;-58
2023/07/14 11:05:58;;;;;;;4.47;3.20;;;27.50;99.90;;;;;;4991396;28;20486;-58
2023/07/14 11:08:26;;;;;;;5.30;3.30;;;28.20;99.90;;;;;;4991307;28;20797;-58
2023/07/14 11:11:11;;;;;;;4.93;3.00;;;28.60;99.90;;;;;;4991412;28;20421;-58
2023/07/14 11:14:14;;;;;;;4.27;3.33;;;29.00;99.90;;;;;;4991873;28;21084;-57
2023/07/14 11:16:55;;;;;;;5.03;2.80;;;28.60;99.90;;;;;;4991934;28;20736;-58
2023/07/14 11:19:25;;;;;;;3.50;3.00;;;28.20;99.90;;;;;;4991727;28;20408;-58
2023/07/14 11:22:00;;;;;;;6.00;3.47;;;27.70;99.90;;;;;;4991595;28;20412;-58
2023/07/14 11:24:42;;;;;;;5.60;3.30;;;27.20;99.90;;;;;;4991730;28;20412;-58
2023/07/14 11:27:31;;;;;;;4.47;2.90;;;26.90;99.90;;;;;;4991328;28;20452;-58
2023/07/14 11:30:06;;;;;;;4.47;3.10;;;27.60;99.90;;;;;;4991512;28;20416;-58
2023/07/14 11:32:56;;;;;;;4.77;3.10;;;27.70;99.90;;;;;;4991451;28;20491;-58
2023/07/14 11:35:32;;;;;;;5.00;3.20;;;27.60;99.90;;;;;;4991095;28;20885;-58
2023/07/14 11:38:21;;;;;;;6.93;3.40;;;27.10;99.90;;;;;;4991383;28;20419;-58
2023/07/14 11:40:49;;;;;;;4.03;3.03;;;26.70;99.90;;;;;;4991181;28;20404;-57
2023/07/14 11:43:20;;;;;;;3.27;2.97;;;26.30;99.90;;;;;;4991238;28;20425;-57
2023/07/14 11:45:53;;;;;;;17.93;3.87;;;26.00;99.90;;;;;;4990953;28;20539;-58
2023/07/14 11:48:25;;;;;;;4.50;3.20;;;25.90;99.90;;;;;;4991232;28;20515;-58
2023/07/14 11:51:13;;;;;;;3.60;3.30;;;25.90;99.90;;;;;;4990775;28;20500;-58
2023/07/14 11:53:42;;;;;;;6.23;3.23;;;26.50;99.90;;;;;;4991201;28;20420;-57
2023/07/14 11:56:21;;;;;;;3.90;3.60;;;26.70;99.90;;;;;;4991561;28;20405;-58
2023/07/14 11:58:51;;;;;;;4.67;3.13;;;26.60;99.90;;;;;;4991105;28;20407;-57
2023/07/14 12:01:29;;;;;;;5.67;3.80;;;26.50;99.90;;;;;;4991235;28;20438;-57
2023/07/14 12:04:25;;;;;;;7.10;3.80;;;26.60;99.90;;;;;;4991983;28;20412;-58
2023/07/14 12:07:18;;;;;;;8.27;3.97;;;27.50;99.90;;;;;;4992188;28;20521;-58
2023/07/14 12:10:14;;;;;;;4.53;3.53;;;27.90;99.90;;;;;;4992724;28;20495;-56
2023/07/14 12:12:41;;;;;;;7.33;3.93;;;27.70;99.90;;;;;;4989779;28;20466;-58
2023/07/14 12:15:42;;;;;;;4.97;3.77;;;28.00;99.90;;;;;;4992381;28;20411;-57
2023/07/14 12:18:30;;;;;;;4.10;3.33;;;27.80;99.90;;;;;;4992459;28;20420;-57
2023/07/14 12:21:14;;;;;;;4.43;3.30;;;27.70;99.90;;;;;;4990129;28;20412;-57
2023/07/14 12:23:41;;;;;;;4.70;3.40;;;27.40;99.90;;;;;;4991100;28;20452;-57
2023/07/14 12:26:16;;;;;;;7.03;4.10;;;26.90;99.90;;;;;;4990731;28;20494;-56
2023/07/14 12:28:41;;;;;;;3.87;3.13;;;26.60;99.90;;;;;;4990693;28;20419;-57
2023/07/14 12:31:13;;;;;;;4.30;3.83;;;26.20;99.90;;;;;;4990782;28;20420;-57
2023/07/14 12:33:39;;;;;;;4.60;3.70;;;25.90;99.90;;;;;;4991134;28;20181;-57
2023/07/14 12:36:05;;;;;;;6.30;3.80;;;25.70;99.90;;;;;;4991056;28;20477;-58
2023/07/14 12:38:33;;;;;;;4.87;4.00;;;25.40;99.90;;;;;;4990755;28;20185;-58
2023/07/14 12:40:59;;;;;;;5.53;3.80;;;25.30;99.90;;;;;;4990541;28;20507;-56
2023/07/14 12:43:39;;;;;;;4.43;3.70;;;25.50;99.90;;;;;;4990814;28;20526;-59
2023/07/14 12:46:26;;;;;;;6.30;3.80;;;25.40;99.90;;;;;;4990478;28;20475;-59
2023/07/14 12:49:16;;;;;;;6.77;3.83;;;25.20;99.90;;;;;;4990463;28;20412;-58
2023/07/14 12:51:42;;;;;;;5.30;3.47;;;24.70;99.90;;;;;;4990986;28;20420;-58
2023/07/14 12:54:15;;;;;;;5.10;4.10;;;24.40;99.90;;;;;;4990375;28;20468;-58
2023/07/14 12:56:41;;;;;;;9.13;3.90;;;24.20;99.90;;;;;;4990518;28;20184;-58
2023/07/14 12:59:14;;;;;;;5.83;4.07;;;24.00;99.90;;;;;;4990486;28;20420;-58
2023/07/14 13:01:47;;;;;;;9.13;3.73;;;23.90;99.90;;;;;;4990833;28;20177;-58